Time;durP1;ratioP1;P1;durP2;ratioP2;P2;SDS_P1;SDS_P2;PMS_P1;PMS_P2;Temp;Humidity;BMP_temperature;BMP_pressure;BME280_temperature;BME280_humidity;BME280_pressure;Samples;Min_cycle;Max_cycle;Signal;HPM_P1;HPM_P2
2021/07/19 00:02:13;;;;;;;3.50;3.20;;;24.50;99.90;;;;;;5051286;28;20358;-67
2021/07/19 00:04:45;;;;;;;3.45;3.15;;;24.50;99.90;;;;;;5051896;28;20497;-68
2021/07/19 00:07:12;;;;;;;3.70;3.40;;;24.50;99.90;;;;;;5050410;28;20032;-67
2021/07/19 00:09:44;;;;;;;3.42;3.13;;;24.50;99.90;;;;;;5051208;28;20024;-66
2021/07/19 00:12:10;;;;;;;4.30;3.10;;;24.50;99.90;;;;;;5051895;28;20032;-66
2021/07/19 00:14:36;;;;;;;4.63;3.25;;;24.50;99.90;;;;;;5050390;28;20376;-66
2021/07/19 00:17:02;;;;;;;3.47;3.17;;;24.50;99.90;;;;;;5051130;28;20029;-68
2021/07/19 00:19:28;;;;;;;3.80;3.22;;;24.50;99.90;;;;;;5051402;28;20021;-66
2021/07/19 00:21:55;;;;;;;3.60;3.30;;;24.50;99.90;;;;;;5049982;28;20040;-66
2021/07/19 00:24:21;;;;;;;3.42;3.13;;;24.50;99.90;;;;;;5051611;28;20433;-67
2021/07/19 00:26:46;;;;;;;3.50;3.20;;;24.50;99.90;;;;;;5051247;28;20104;-67
2021/07/19 00:29:12;;;;;;;3.95;3.55;;;24.40;99.90;;;;;;5051382;28;20143;-66
2021/07/19 00:31:38;;;;;;;3.50;3.17;;;24.40;99.90;;;;;;5051573;28;20056;-67
2021/07/19 00:34:04;;;;;;;3.20;2.90;;;24.40;99.90;;;;;;5049706;28;20043;-67
2021/07/19 00:36:30;;;;;;;3.53;3.22;;;24.40;99.90;;;;;;5051220;28;20648;-67
2021/07/19 00:38:56;;;;;;;4.43;3.10;;;24.40;99.90;;;;;;5049881;28;20056;-66
2021/07/19 00:41:22;;;;;;;3.72;3.30;;;24.40;99.90;;;;;;5051271;28;20029;-66
2021/07/19 00:43:48;;;;;;;3.20;2.90;;;24.40;99.90;;;;;;5051062;28;20485;-67
2021/07/19 00:46:14;;;;;;;3.50;3.15;;;24.40;99.90;;;;;;5051085;28;20025;-67
2021/07/19 00:48:42;;;;;;;3.47;3.17;;;24.30;99.90;;;;;;5050822;28;20496;-65
2021/07/19 00:51:08;;;;;;;3.90;3.38;;;24.40;99.90;;;;;;5051478;28;20017;-67
2021/07/19 00:53:34;;;;;;;3.83;3.40;;;24.30;99.90;;;;;;5051148;28;20029;-66
2021/07/19 00:56:01;;;;;;;3.20;2.90;;;24.40;99.90;;;;;;5050420;28;20029;-67
2021/07/19 00:58:29;;;;;;;3.38;2.95;;;24.30;99.90;;;;;;5049742;28;20370;-67
2021/07/19 01:00:57;;;;;;;3.05;2.85;;;24.30;99.90;;;;;;5049412;28;20488;-69
2021/07/19 01:03:24;;;;;;;3.80;3.20;;;24.30;99.90;;;;;;5051075;28;20488;-66
2021/07/19 01:05:51;;;;;;;3.63;3.17;;;24.30;99.90;;;;;;5050679;28;20037;-67
2021/07/19 01:08:20;;;;;;;3.45;3.15;;;24.30;99.90;;;;;;5050887;28;20100;-66
2021/07/19 01:10:48;;;;;;;4.18;3.28;;;24.30;99.90;;;;;;5050683;28;20452;-66
2021/07/19 01:13:14;;;;;;;4.25;3.42;;;24.30;99.90;;;;;;5049789;28;20028;-67
2021/07/19 01:15:40;;;;;;;3.67;3.28;;;24.30;99.90;;;;;;5051086;28;20384;-67
2021/07/19 01:18:08;;;;;;;3.78;3.35;;;24.30;99.90;;;;;;5051130;28;20454;-66
2021/07/19 01:20:36;;;;;;;3.28;3.03;;;24.20;99.90;;;;;;5050700;28;20112;-66
2021/07/19 01:23:24;;;;;;;3.35;3.05;;;24.20;99.90;;;;;;5054446;28;20477;-67
2021/07/19 01:26:07;;;;;;;3.65;3.17;;;24.20;99.90;;;;;;5053060;28;20053;-67
2021/07/19 01:28:52;;;;;;;3.40;3.10;;;24.20;99.90;;;;;;5054463;28;20036;-66
2021/07/19 01:31:26;;;;;;;3.55;3.15;;;24.20;99.90;;;;;;5054475;28;20045;-67
2021/07/19 01:34:12;;;;;;;;;;;24.20;99.90;;;;;;5054553;28;20029;-66
2021/07/19 01:36:51;;;;;;;3.25;2.95;;;24.20;99.90;;;;;;5054425;28;20063;-66
2021/07/19 01:39:18;;;;;;;3.33;3.00;;;24.20;99.90;;;;;;5054348;28;20035;-68
2021/07/19 01:41:44;;;;;;;3.63;3.33;;;24.20;99.90;;;;;;5053943;28;20031;-66
2021/07/19 01:44:11;;;;;;;3.42;3.13;;;24.20;99.90;;;;;;5054155;28;20021;-66
2021/07/19 01:46:37;;;;;;;3.45;3.13;;;24.20;99.90;;;;;;5036476;28;20458;-66
2021/07/19 01:49:05;;;;;;;3.30;3.00;;;24.10;99.90;;;;;;5053666;28;20507;-67
2021/07/19 01:51:31;;;;;;;3.30;3.00;;;24.20;99.90;;;;;;5053853;28;20025;-68
2021/07/19 01:53:58;;;;;;;3.28;2.97;;;24.10;99.90;;;;;;5053677;28;20500;-66
2021/07/19 01:56:25;;;;;;;3.60;3.30;;;24.10;99.90;;;;;;5053891;28;20021;-68
2021/07/19 01:58:56;;;;;;;3.60;3.22;;;24.10;99.90;;;;;;5053707;28;20091;-67
2021/07/19 02:01:22;;;;;;;3.47;3.17;;;24.10;99.90;;;;;;5054152;28;20112;-66
2021/07/19 02:03:48;;;;;;;3.47;3.17;;;24.10;99.90;;;;;;5053474;28;20096;-68
2021/07/19 02:06:14;;;;;;;3.38;3.08;;;24.10;99.90;;;;;;5053636;28;20516;-66
2021/07/19 02:08:41;;;;;;;3.63;3.25;;;24.10;99.90;;;;;;5052203;28;20029;-67
2021/07/19 02:11:09;;;;;;;3.60;3.00;;;24.10;99.90;;;;;;5052710;28;20494;-66
2021/07/19 02:13:38;;;;;;;3.33;3.03;;;24.10;99.90;;;;;;5053981;28;20342;-67
2021/07/19 02:16:05;;;;;;;3.55;3.25;;;24.10;99.90;;;;;;5053382;28;20031;-67
2021/07/19 02:18:33;;;;;;;3.42;3.13;;;24.00;99.90;;;;;;5053695;28;20052;-67
2021/07/19 02:21:04;;;;;;;3.15;2.85;;;24.10;99.90;;;;;;5053272;28;20032;-67
2021/07/19 02:23:31;;;;;;;3.55;3.25;;;24.00;99.90;;;;;;5053682;28;20028;-67
2021/07/19 02:25:58;;;;;;;2.95;2.75;;;24.00;99.90;;;;;;5053259;28;20036;-66
2021/07/19 02:28:24;;;;;;;3.40;3.03;;;24.00;99.90;;;;;;5053412;28;20575;-67
2021/07/19 02:30:52;;;;;;;3.65;3.10;;;24.00;99.90;;;;;;5053330;28;20017;-67
2021/07/19 02:33:20;;;;;;;3.70;3.40;;;24.00;99.90;;;;;;5052875;28;20021;-67
2021/07/19 02:35:52;;;;;;;3.30;3.00;;;24.00;99.90;;;;;;5052897;28;20021;-66
2021/07/19 02:38:20;;;;;;;3.53;2.92;;;24.00;99.90;;;;;;5053183;28;20068;-67
2021/07/19 02:40:48;;;;;;;3.53;3.22;;;24.00;99.90;;;;;;5052937;28;20023;-66
2021/07/19 02:43:15;;;;;;;3.40;3.10;;;24.00;99.90;;;;;;5053129;28;20087;-66
2021/07/19 02:45:45;;;;;;;3.65;3.28;;;24.00;99.90;;;;;;5052785;28;20017;-67
2021/07/19 02:48:13;;;;;;;3.50;3.20;;;23.90;99.90;;;;;;5052762;28;20020;-65
2021/07/19 02:50:41;;;;;;;3.42;3.13;;;24.00;99.90;;;;;;5051884;28;20029;-67
2021/07/19 02:53:13;;;;;;;3.45;3.15;;;23.90;99.90;;;;;;5053167;28;20029;-66
2021/07/19 02:55:40;;;;;;;3.40;3.10;;;23.90;99.90;;;;;;5053093;28;20493;-66
2021/07/19 02:58:07;;;;;;;4.30;3.25;;;23.90;99.90;;;;;;5052873;28;20029;-66
2021/07/19 03:00:34;;;;;;;3.35;3.05;;;23.90;99.90;;;;;;5052788;28;20033;-67
2021/07/19 03:03:08;;;;;;;3.25;2.95;;;23.90;99.90;;;;;;5052323;28;20477;-66
2021/07/19 03:05:41;;;;;;;3.97;3.58;;;23.90;99.90;;;;;;5052814;28;20033;-66
2021/07/19 03:08:09;;;;;;;3.53;3.22;;;23.90;99.90;;;;;;5052901;28;20116;-66
2021/07/19 03:10:36;;;;;;;3.85;3.25;;;23.90;99.90;;;;;;5052940;28;20059;-66
2021/07/19 03:13:11;;;;;;;3.38;3.05;;;23.90;99.90;;;;;;5050908;28;20389;-67
2021/07/19 03:15:39;;;;;;;4.03;3.63;;;23.90;99.90;;;;;;5052813;28;20021;-66
2021/07/19 03:18:07;;;;;;;4.43;3.30;;;23.80;99.90;;;;;;5052088;28;20040;-66
2021/07/19 03:20:36;;;;;;;4.40;3.30;;;23.80;99.90;;;;;;5052435;28;20539;-66
2021/07/19 03:23:06;;;;;;;3.42;3.13;;;23.80;99.90;;;;;;5052010;28;20140;-66
2021/07/19 03:25:34;;;;;;;3.97;3.28;;;23.80;99.90;;;;;;5050839;28;20050;-66
2021/07/19 03:28:00;;;;;;;3.67;3.30;;;23.80;99.90;;;;;;5052013;28;20033;-66
2021/07/19 03:30:26;;;;;;;3.40;3.10;;;23.80;99.90;;;;;;5052082;28;20512;-67
2021/07/19 03:32:53;;;;;;;3.60;3.30;;;23.80;99.90;;;;;;5052094;28;20033;-66
2021/07/19 03:35:22;;;;;;;4.13;3.60;;;23.80;99.90;;;;;;5052068;28;20035;-66
2021/07/19 03:37:49;;;;;;;3.50;3.20;;;23.80;99.90;;;;;;5051803;28;20036;-66
2021/07/19 03:40:19;;;;;;;3.50;3.08;;;23.80;99.90;;;;;;5052080;28;20051;-66
2021/07/19 03:42:47;;;;;;;4.13;3.10;;;23.80;99.90;;;;;;5052029;28;20381;-67
2021/07/19 03:45:14;;;;;;;3.88;3.25;;;23.80;99.90;;;;;;5049073;28;20473;-67
2021/07/19 03:47:43;;;;;;;3.75;3.33;;;23.70;99.90;;;;;;5051855;28;20056;-67
2021/07/19 03:50:10;;;;;;;3.53;3.22;;;23.70;99.90;;;;;;5052187;28;20021;-66
2021/07/19 03:52:43;;;;;;;3.95;3.30;;;23.70;99.90;;;;;;5051412;28;20496;-66
2021/07/19 03:55:12;;;;;;;3.83;3.30;;;23.80;99.90;;;;;;5052048;28;20036;-66
2021/07/19 03:57:38;;;;;;;4.78;3.45;;;23.70;99.90;;;;;;5051729;28;20039;-66
2021/07/19 04:00:07;;;;;;;3.45;3.00;;;23.80;99.90;;;;;;5051600;28;20021;-66
2021/07/19 04:02:36;;;;;;;3.63;3.03;;;23.70;99.90;;;;;;5050005;28;20082;-67
2021/07/19 04:05:07;;;;;;;3.30;3.00;;;23.70;99.90;;;;;;5050172;28;20356;-67
2021/07/19 04:07:36;;;;;;;3.50;3.20;;;23.70;99.90;;;;;;5051421;28;20029;-66
2021/07/19 04:10:08;;;;;;;3.35;3.05;;;23.70;99.90;;;;;;5051555;28;20032;-67
2021/07/19 04:12:34;;;;;;;3.42;2.95;;;23.70;99.90;;;;;;5051099;28;20497;-66
2021/07/19 04:15:01;;;;;;;3.78;3.38;;;23.70;99.90;;;;;;5051441;28;20074;-67
2021/07/19 04:17:26;;;;;;;3.78;3.25;;;23.70;99.90;;;;;;5051454;28;20412;-70
2021/07/19 04:19:52;;;;;;;3.90;3.00;;;23.70;99.90;;;;;;5051338;28;20236;-66
2021/07/19 04:22:19;;;;;;;3.72;3.35;;;23.70;99.90;;;;;;5051344;28;20052;-66
2021/07/19 04:24:45;;;;;;;3.22;2.92;;;23.70;99.90;;;;;;5051111;28;20017;-65
2021/07/19 04:27:13;;;;;;;3.75;3.05;;;23.70;99.90;;;;;;5051681;28;20052;-65
2021/07/19 04:29:39;;;;;;;3.38;3.08;;;23.70;99.90;;;;;;5051568;28;20047;-65
2021/07/19 04:32:05;;;;;;;3.60;3.30;;;23.70;99.90;;;;;;5051380;28;20469;-65
2021/07/19 04:34:33;;;;;;;3.28;2.90;;;23.70;99.90;;;;;;5051100;28;20083;-65
2021/07/19 04:37:06;;;;;;;3.45;3.15;;;23.70;99.90;;;;;;5051099;28;20075;-66
2021/07/19 04:39:32;;;;;;;4.05;3.30;;;23.70;99.90;;;;;;5050615;28;20037;-65
2021/07/19 04:41:58;;;;;;;3.70;3.33;;;23.70;99.90;;;;;;5051221;28;20025;-65
2021/07/19 04:44:24;;;;;;;3.97;3.20;;;23.70;99.90;;;;;;5051133;28;20040;-65
2021/07/19 04:46:50;;;;;;;3.85;3.30;;;23.70;99.90;;;;;;5051019;28;20033;-65
2021/07/19 04:49:17;;;;;;;5.25;3.50;;;23.70;99.90;;;;;;5051152;28;20029;-65
2021/07/19 04:51:45;;;;;;;4.20;3.40;;;23.80;99.90;;;;;;5051069;28;20090;-65
2021/07/19 04:54:12;;;;;;;3.75;3.40;;;23.80;99.90;;;;;;5051336;28;20024;-66
2021/07/19 04:56:39;;;;;;;3.50;3.20;;;23.80;99.90;;;;;;5053853;28;20036;-65
2021/07/19 04:59:06;;;;;;;3.75;3.42;;;23.80;99.90;;;;;;5055084;28;20029;-65
2021/07/19 05:01:34;;;;;;;3.60;3.13;;;23.90;99.90;;;;;;5054350;28;20108;-65
2021/07/19 05:04:02;;;;;;;3.72;3.13;;;23.90;99.90;;;;;;5054368;28;20059;-65
2021/07/19 05:06:29;;;;;;;3.90;3.60;;;24.00;99.90;;;;;;5053294;28;20032;-65
2021/07/19 05:08:56;;;;;;;3.35;3.05;;;24.00;99.90;;;;;;5054703;28;20397;-65
2021/07/19 05:11:24;;;;;;;3.13;2.83;;;24.10;99.90;;;;;;5053499;28;20021;-65
2021/07/19 05:13:50;;;;;;;3.75;3.22;;;24.10;99.90;;;;;;5038190;28;20032;-65
2021/07/19 05:16:16;;;;;;;3.75;3.35;;;24.10;99.90;;;;;;5034668;28;20084;-65
2021/07/19 05:18:44;;;;;;;3.38;3.08;;;24.20;99.90;;;;;;5034692;28;20034;-65
2021/07/19 05:21:09;;;;;;;3.58;3.28;;;24.20;99.90;;;;;;5034763;28;20029;-65
2021/07/19 05:23:36;;;;;;;4.55;3.55;;;24.30;99.90;;;;;;5034517;28;20029;-66
2021/07/19 05:26:02;;;;;;;3.53;3.20;;;24.30;99.90;;;;;;5034526;28;20083;-65
2021/07/19 05:28:28;;;;;;;3.75;3.30;;;24.40;99.90;;;;;;5034469;28;20021;-66
2021/07/19 05:30:54;;;;;;;4.40;3.58;;;24.40;99.90;;;;;;5034489;28;20099;-66
2021/07/19 05:33:22;;;;;;;4.28;3.33;;;24.40;99.90;;;;;;5034393;28;20029;-66
2021/07/19 05:35:49;;;;;;;3.65;3.33;;;24.50;99.90;;;;;;5033743;28;20500;-65
2021/07/19 05:38:15;;;;;;;4.13;3.72;;;24.50;99.90;;;;;;5034358;28;20056;-66
2021/07/19 05:40:42;;;;;;;4.28;3.22;;;24.50;99.90;;;;;;5034417;28;20072;-66
2021/07/19 05:43:07;;;;;;;3.55;3.13;;;24.60;99.90;;;;;;5034128;28;20493;-66
2021/07/19 05:45:33;;;;;;;3.83;3.13;;;24.60;99.90;;;;;;5033926;28;20025;-65
2021/07/19 05:47:59;;;;;;;4.07;3.53;;;24.70;99.90;;;;;;5034175;28;20026;-66
2021/07/19 05:50:29;;;;;;;3.67;2.90;;;24.60;99.90;;;;;;5034245;28;20026;-64
2021/07/19 05:52:56;;;;;;;8.23;6.78;;;24.60;99.90;;;;;;5033861;28;20030;-66
2021/07/19 05:55:23;;;;;;;9.15;8.25;;;24.40;99.90;;;;;;5034133;28;20036;-67
2021/07/19 05:57:48;;;;;;;14.82;8.70;;;24.20;99.90;;;;;;5033683;28;20038;-67
2021/07/19 06:00:16;;;;;;;12.73;9.43;;;24.10;99.90;;;;;;5034276;28;20029;-69
2021/07/19 06:02:43;;;;;;;11.30;9.85;;;24.00;99.90;;;;;;5046992;28;20036;-66
2021/07/19 06:05:10;;;;;;;11.15;9.82;;;23.90;99.90;;;;;;5052748;28;20089;-62
2021/07/19 06:07:35;;;;;;;14.27;10.05;;;23.90;99.90;;;;;;5051839;28;20039;-67
2021/07/19 06:10:03;;;;;;;16.23;10.25;;;23.90;99.90;;;;;;5053566;28;20024;-64
2021/07/19 06:12:29;;;;;;;12.93;10.23;;;23.90;99.90;;;;;;5053000;28;20043;-65
2021/07/19 06:14:55;;;;;;;15.05;10.38;;;23.90;99.90;;;;;;5053657;28;20493;-65
2021/07/19 06:17:20;;;;;;;12.02;9.85;;;23.90;99.90;;;;;;5052758;28;20481;-65
2021/07/19 06:19:47;;;;;;;11.73;9.95;;;23.90;99.90;;;;;;5053563;28;20933;-66
2021/07/19 06:22:12;;;;;;;12.27;9.73;;;23.80;99.90;;;;;;5053548;28;20083;-67
2021/07/19 06:24:39;;;;;;;11.70;9.93;;;23.80;99.90;;;;;;5053391;28;20021;-66
2021/07/19 06:27:06;;;;;;;12.82;9.73;;;23.90;99.90;;;;;;5053295;28;20354;-65
2021/07/19 06:29:31;;;;;;;13.00;10.15;;;23.80;99.90;;;;;;5052562;28;20025;-66
2021/07/19 06:31:57;;;;;;;12.93;9.25;;;23.80;99.90;;;;;;5053447;28;20017;-66
2021/07/19 06:34:23;;;;;;;13.52;10.13;;;23.80;99.90;;;;;;5052983;28;20473;-64
2021/07/19 06:36:49;;;;;;;14.15;9.50;;;23.80;99.90;;;;;;5052103;28;20032;-65
2021/07/19 06:39:14;;;;;;;12.23;8.75;;;23.90;99.90;;;;;;5053312;28;20459;-64
2021/07/19 06:41:40;;;;;;;12.57;9.07;;;23.90;99.90;;;;;;5052248;28;20021;-64
2021/07/19 06:44:06;;;;;;;12.43;9.30;;;23.90;99.90;;;;;;5052594;28;20082;-67
2021/07/19 06:46:32;;;;;;;11.40;9.75;;;23.90;99.90;;;;;;5052339;28;20150;-65
2021/07/19 06:48:58;;;;;;;11.82;8.90;;;23.90;99.90;;;;;;5052311;28;20116;-67
2021/07/19 06:51:23;;;;;;;10.10;9.10;;;23.90;99.90;;;;;;5052313;28;20367;-67
2021/07/19 06:53:49;;;;;;;12.57;9.18;;;23.90;99.90;;;;;;5052611;28;20604;-67
2021/07/19 06:56:14;;;;;;;11.32;9.05;;;24.00;99.90;;;;;;5052286;28;20033;-68
2021/07/19 06:58:40;;;;;;;9.77;8.57;;;23.90;99.90;;;;;;5051766;28;20067;-66
2021/07/19 07:01:06;;;;;;;9.65;8.75;;;23.90;99.90;;;;;;5051542;28;20094;-65
2021/07/19 07:03:32;;;;;;;11.55;8.00;;;23.90;99.90;;;;;;5050954;28;20025;-67
2021/07/19 07:05:58;;;;;;;11.82;7.55;;;23.90;99.90;;;;;;5050990;28;20075;-67
2021/07/19 07:08:23;;;;;;;11.98;8.27;;;23.90;99.90;;;;;;5051207;28;20523;-67
2021/07/19 07:10:49;;;;;;;10.95;7.93;;;23.90;99.90;;;;;;5050018;28;20428;-67
2021/07/19 07:13:16;;;;;;;9.80;8.27;;;24.00;99.90;;;;;;5064398;28;20392;-68
2021/07/19 07:15:41;;;;;;;9.45;8.23;;;24.00;99.90;;;;;;5066980;28;20027;-68
2021/07/19 07:18:08;;;;;;;8.80;7.32;;;23.90;99.90;;;;;;5051587;28;20046;-66
2021/07/19 07:20:38;;;;;;;8.80;7.90;;;24.00;99.90;;;;;;5040966;28;20025;-67
2021/07/19 07:23:04;;;;;;;9.40;7.63;;;23.90;99.90;;;;;;5050429;28;20424;-67
2021/07/19 07:25:30;;;;;;;11.07;6.88;;;23.90;99.90;;;;;;5050631;28;20359;-74
2021/07/19 07:27:56;;;;;;;11.82;7.70;;;24.20;99.90;;;;;;5050523;28;20044;-72
2021/07/19 07:30:22;;;;;;;9.80;6.97;;;24.50;99.90;;;;;;5052136;28;20029;-73
2021/07/19 07:32:48;;;;;;;9.18;6.35;;;24.70;99.90;;;;;;5052041;28;20025;-72
2021/07/19 07:35:14;;;;;;;12.45;7.03;;;24.90;99.90;;;;;;5052061;28;20480;-71
2021/07/19 07:37:40;;;;;;;9.63;6.53;;;25.00;99.90;;;;;;5051222;28;20068;-71
2021/07/19 07:40:08;;;;;;;11.57;6.25;;;25.10;99.90;;;;;;5052030;28;20064;-73
2021/07/19 07:42:34;;;;;;;7.95;5.85;;;25.20;99.90;;;;;;5051925;28;20380;-67
2021/07/19 07:45:00;;;;;;;8.10;6.65;;;25.20;99.90;;;;;;5048678;28;20021;-72
2021/07/19 07:47:26;;;;;;;13.40;6.25;;;25.30;99.90;;;;;;5043353;28;20112;-70
2021/07/19 07:49:52;;;;;;;10.10;5.88;;;25.40;99.90;;;;;;5051738;28;20017;-69
2021/07/19 07:52:19;;;;;;;8.45;5.85;;;25.40;99.90;;;;;;5051985;28;20044;-67
2021/07/19 07:54:45;;;;;;;7.07;5.82;;;25.40;99.90;;;;;;5051520;28;20092;-70
2021/07/19 07:57:11;;;;;;;9.70;6.43;;;25.40;99.90;;;;;;5051580;28;20516;-71
2021/07/19 07:59:37;;;;;;;7.22;5.10;;;25.40;99.90;;;;;;5050819;28;20408;-69
2021/07/19 08:02:03;;;;;;;7.18;5.40;;;25.30;99.90;;;;;;5051763;28;20057;-66
2021/07/19 08:04:29;;;;;;;6.28;5.10;;;25.40;99.90;;;;;;5050679;28;20029;-67
2021/07/19 08:07:00;;;;;;;6.43;4.75;;;25.40;99.90;;;;;;5050623;28;20416;-69
2021/07/19 08:09:26;;;;;;;6.72;4.95;;;25.40;99.90;;;;;;5051619;28;20017;-69
2021/07/19 08:11:52;;;;;;;6.05;5.10;;;25.40;99.90;;;;;;5050680;28;20033;-69
2021/07/19 08:14:18;;;;;;;8.70;5.20;;;25.40;99.90;;;;;;5051700;28;20104;-67
2021/07/19 08:16:44;;;;;;;6.80;4.93;;;25.40;99.90;;;;;;5051164;28;20036;-66
2021/07/19 08:19:11;;;;;;;7.72;5.07;;;25.40;99.90;;;;;;5050738;28;20393;-66
2021/07/19 08:21:38;;;;;;;9.00;5.55;;;25.30;99.90;;;;;;5049659;28;20029;-67
2021/07/19 08:24:04;;;;;;;6.57;5.10;;;25.40;99.90;;;;;;5049831;28;20477;-72
2021/07/19 08:26:30;;;;;;;7.75;5.22;;;25.40;99.90;;;;;;5050457;28;20032;-68
2021/07/19 08:28:56;;;;;;;8.70;5.00;;;25.40;99.90;;;;;;5049527;28;20389;-68
2021/07/19 08:31:23;;;;;;;6.35;4.93;;;25.30;99.90;;;;;;5049539;28;20473;-68
2021/07/19 08:33:49;;;;;;;5.25;4.63;;;25.30;99.90;;;;;;5050761;28;20389;-70
2021/07/19 08:36:15;;;;;;;5.28;4.25;;;25.30;99.90;;;;;;5051337;28;20025;-73
2021/07/19 08:38:41;;;;;;;6.85;4.32;;;25.40;99.90;;;;;;5050259;28;20090;-70
2021/07/19 08:41:07;;;;;;;7.00;4.43;;;25.30;99.90;;;;;;5050670;28;20080;-70
2021/07/19 08:43:35;;;;;;;7.70;4.28;;;25.30;99.90;;;;;;5050819;28;20505;-67
2021/07/19 08:46:01;;;;;;;6.90;4.80;;;25.20;99.90;;;;;;5049906;28;20426;-72
2021/07/19 08:48:28;;;;;;;7.13;4.72;;;25.20;99.90;;;;;;5050549;28;20587;-68
2021/07/19 08:50:54;;;;;;;6.40;4.78;;;25.20;99.90;;;;;;5050657;28;20024;-69
2021/07/19 08:53:20;;;;;;;7.10;4.57;;;25.20;99.90;;;;;;5051098;28;20090;-71
2021/07/19 08:55:50;;;;;;;7.70;4.70;;;25.30;99.90;;;;;;5050470;28;20536;-71
2021/07/19 08:58:16;;;;;;;5.57;4.20;;;25.30;99.90;;;;;;5050389;28;20120;-70
2021/07/19 09:00:42;;;;;;;5.70;4.00;;;25.30;99.90;;;;;;5050657;28;20033;-74
2021/07/19 09:03:08;;;;;;;6.15;3.90;;;25.30;99.90;;;;;;5040310;28;20109;-69
2021/07/19 09:05:34;;;;;;;6.68;3.50;;;25.30;99.90;;;;;;5050522;28;20033;-72
2021/07/19 09:08:00;;;;;;;6.10;3.13;;;25.40;99.90;;;;;;5051170;28;20028;-72
2021/07/19 09:10:27;;;;;;;4.20;3.50;;;25.40;99.90;;;;;;5050801;28;20021;-73
2021/07/19 09:12:54;;;;;;;4.82;2.97;;;25.50;99.90;;;;;;5051418;28;20028;-66
2021/07/19 09:15:30;;;;;;;3.88;3.28;;;25.50;99.90;;;;;;5050302;28;20055;-70
2021/07/19 09:17:56;;;;;;;4.45;2.78;;;25.50;99.90;;;;;;5050623;28;20041;-73
2021/07/19 09:20:29;;;;;;;3.67;2.80;;;25.40;99.90;;;;;;5049413;28;20029;-73
2021/07/19 09:22:54;;;;;;;4.25;2.88;;;25.50;99.90;;;;;;5050876;28;20412;-70
2021/07/19 09:25:20;;;;;;;3.78;2.63;;;25.50;99.90;;;;;;5051114;28;20029;-68
2021/07/19 09:28:06;;;;;;;3.35;2.55;;;25.50;99.90;;;;;;5050597;28;20025;-70
2021/07/19 09:30:34;;;;;;;3.72;2.72;;;25.60;99.90;;;;;;5049621;28;20047;-69
2021/07/19 09:33:03;;;;;;;4.15;2.70;;;25.60;99.90;;;;;;5050725;28;20365;-69
2021/07/19 09:35:31;;;;;;;4.40;3.05;;;25.60;99.90;;;;;;5049539;28;20033;-68
2021/07/19 09:38:05;;;;;;;5.53;2.70;;;25.60;99.90;;;;;;5050401;28;20037;-67
2021/07/19 09:40:33;;;;;;;2.63;2.42;;;25.60;99.90;;;;;;5050295;28;20075;-68
2021/07/19 09:42:59;;;;;;;3.53;2.70;;;25.60;99.90;;;;;;5052571;28;20104;-69
2021/07/19 09:45:29;;;;;;;4.65;2.35;;;25.60;99.90;;;;;;5054252;28;20055;-70
2021/07/19 09:48:05;;;;;;;3.67;2.50;;;25.70;99.90;;;;;;5054317;28;20385;-68
2021/07/19 09:50:50;;;;;;;2.88;2.40;;;25.70;99.90;;;;;;5053963;28;20029;-71
2021/07/19 09:53:35;;;;;;;3.78;2.47;;;25.70;99.90;;;;;;5054016;28;20033;-70
2021/07/19 09:56:17;;;;;;;4.63;2.90;;;25.70;99.90;;;;;;5053096;28;20402;-69
2021/07/19 09:58:47;;;;;;;4.43;2.60;;;25.70;99.90;;;;;;5052546;28;20029;-68
2021/07/19 10:01:23;;;;;;;2.72;2.30;;;25.70;99.90;;;;;;5054016;28;20489;-68
2021/07/19 10:03:49;;;;;;;3.60;2.53;;;25.80;99.90;;;;;;5053705;28;20032;-67
2021/07/19 10:06:15;;;;;;;3.08;2.30;;;25.80;99.90;;;;;;5053758;28;20029;-69
2021/07/19 10:08:40;;;;;;;3.03;2.30;;;25.80;99.90;;;;;;5053478;28;20517;-69
2021/07/19 10:11:16;;;;;;;3.58;2.22;;;25.70;99.90;;;;;;5053793;28;20112;-71
2021/07/19 10:13:47;;;;;;;4.10;2.42;;;25.80;99.90;;;;;;5053323;28;20477;-71
2021/07/19 10:16:13;;;;;;;4.68;2.40;;;25.70;99.90;;;;;;5053720;28;20032;-70
2021/07/19 10:18:40;;;;;;;3.72;2.20;;;25.80;99.90;;;;;;5053099;28;20082;-71
2021/07/19 10:21:06;;;;;;;3.35;2.30;;;25.80;99.90;;;;;;5053540;28;20021;-71
2021/07/19 10:23:32;;;;;;;2.50;2.30;;;25.80;99.90;;;;;;5053194;28;20031;-70
2021/07/19 10:25:58;;;;;;;3.60;2.10;;;25.90;99.90;;;;;;5053396;28;20063;-69
2021/07/19 10:28:25;;;;;;;2.53;2.00;;;25.90;99.90;;;;;;5052905;28;20029;-71
2021/07/19 10:30:53;;;;;;;2.67;2.17;;;25.90;99.90;;;;;;5052927;28;20017;-69
2021/07/19 10:33:19;;;;;;;3.97;2.28;;;25.80;99.90;;;;;;5052445;28;20093;-68
2021/07/19 10:35:45;;;;;;;4.13;2.28;;;25.90;99.90;;;;;;5052364;28;20437;-70
2021/07/19 10:38:17;;;;;;;3.13;2.20;;;25.80;99.90;;;;;;5052639;28;20051;-71
2021/07/19 10:40:44;;;;;;;4.30;2.20;;;25.90;99.90;;;;;;5041870;28;20680;-72
2021/07/19 10:43:14;;;;;;;5.97;2.17;;;25.80;99.90;;;;;;5052475;28;20040;-70
2021/07/19 10:45:48;;;;;;;2.90;2.42;;;25.90;99.90;;;;;;5051946;28;20091;-73
2021/07/19 10:48:28;;;;;;;2.50;1.90;;;25.90;99.90;;;;;;5051309;28;20050;-70
2021/07/19 10:50:57;;;;;;;3.25;2.38;;;25.90;99.90;;;;;;5051411;28;20046;-71
2021/07/19 10:53:26;;;;;;;4.05;2.35;;;25.90;99.90;;;;;;5051508;28;20021;-71
2021/07/19 10:56:03;;;;;;;3.42;2.20;;;25.90;99.90;;;;;;5051682;28;20023;-72
2021/07/19 10:58:48;;;;;;;3.42;2.40;;;25.90;99.90;;;;;;5049505;28;20033;-69
2021/07/19 11:01:24;;;;;;;3.05;2.15;;;25.90;99.90;;;;;;5049600;28;20029;-70
2021/07/19 11:03:51;;;;;;;3.97;2.33;;;25.90;99.90;;;;;;5049772;28;20466;-71
2021/07/19 11:06:36;;;;;;;3.63;2.10;;;25.90;99.90;;;;;;5051396;28;20028;-72
2021/07/19 11:09:12;;;;;;;2.60;2.17;;;25.90;99.90;;;;;;5050968;28;20078;-72
2021/07/19 11:11:40;;;;;;;4.72;2.60;;;26.00;99.90;;;;;;5050618;28;20024;-72
2021/07/19 11:14:24;;;;;;;2.85;2.40;;;25.90;99.90;;;;;;5052715;28;20021;-72
2021/07/19 11:16:53;;;;;;;3.17;2.20;;;25.90;99.90;;;;;;5050053;28;20033;-72
2021/07/19 11:19:36;;;;;;;3.35;2.42;;;26.00;99.90;;;;;;5049951;28;20108;-71
2021/07/19 11:22:06;;;;;;;3.42;2.50;;;26.10;99.90;;;;;;5049290;28;20108;-71
2021/07/19 11:24:39;;;;;;;3.42;2.45;;;26.10;99.90;;;;;;5049116;28;20032;-72
2021/07/19 11:27:05;;;;;;;3.65;2.00;;;26.10;99.90;;;;;;5048776;28;20028;-72
2021/07/19 11:29:38;;;;;;;3.50;2.15;;;26.00;99.90;;;;;;5048777;28;20025;-71
2021/07/19 11:32:13;;;;;;;4.07;2.10;;;26.00;99.90;;;;;;5048997;28;20028;-72
2021/07/19 11:34:39;;;;;;;3.20;2.10;;;25.90;99.90;;;;;;5048886;28;20021;-71
2021/07/19 11:37:05;;;;;;;2.72;2.20;;;25.90;99.90;;;;;;5050273;28;20127;-71
2021/07/19 11:39:45;;;;;;;2.85;2.15;;;25.90;99.90;;;;;;5046784;28;20036;-72
2021/07/19 11:42:12;;;;;;;4.20;2.40;;;25.90;99.90;;;;;;5050236;28;20033;-72
2021/07/19 11:44:39;;;;;;;3.88;2.30;;;25.90;99.90;;;;;;5046651;28;20282;-71
2021/07/19 11:47:06;;;;;;;2.30;1.85;;;25.90;99.90;;;;;;5051547;28;20021;-72
2021/07/19 11:49:32;;;;;;;4.00;2.40;;;25.90;99.90;;;;;;5050028;28;20461;-71
2021/07/19 11:51:58;;;;;;;2.83;2.22;;;25.90;99.90;;;;;;5050591;28;20036;-72
2021/07/19 11:54:24;;;;;;;2.53;1.95;;;25.90;99.90;;;;;;5051158;28;20056;-72
2021/07/19 11:56:55;;;;;;;4.55;2.10;;;25.90;99.90;;;;;;5051407;28;20465;-78
2021/07/19 11:59:23;;;;;;;5.15;2.33;;;25.90;99.90;;;;;;5049800;28;20462;-77
2021/07/19 12:02:03;;;;;;;3.22;2.25;;;25.80;99.90;;;;;;5051200;28;20025;-78
2021/07/19 12:04:43;;;;;;;4.22;2.35;;;25.70;99.90;;;;;;5050965;28;20029;-77
2021/07/19 12:07:10;;;;;;;2.88;2.10;;;25.60;99.90;;;;;;5051071;28;20496;-76
2021/07/19 12:09:38;;;;;;;5.68;2.38;;;25.60;99.90;;;;;;5051413;28;20032;-76
2021/07/19 12:12:04;;;;;;;4.03;2.58;;;25.70;99.90;;;;;;5050232;28;20021;-77
2021/07/19 12:14:31;;;;;;;3.28;2.30;;;25.60;99.90;;;;;;5051187;28;20028;-77
2021/07/19 12:16:57;;;;;;;3.80;2.60;;;25.70;99.90;;;;;;5051443;28;20083;-79
2021/07/19 12:19:23;;;;;;;2.63;2.22;;;25.70;99.90;;;;;;5051428;28;20102;-80
2021/07/19 12:21:51;;;;;;;4.93;2.35;;;25.60;99.90;;;;;;5051352;28;20063;-77
2021/07/19 12:24:25;;;;;;;5.32;2.60;;;25.70;99.90;;;;;;5050107;28;20025;-82
2021/07/19 12:26:56;;;;;;;2.97;2.25;;;25.70;99.90;;;;;;5051322;28;20025;-76
2021/07/19 12:29:41;;;;;;;3.28;2.20;;;25.70;99.90;;;;;;5051305;28;20046;-79
2021/07/19 12:32:08;;;;;;;5.40;2.67;;;25.80;99.90;;;;;;5051587;28;20029;-76
2021/07/19 12:34:42;;;;;;;3.97;2.70;;;25.80;99.90;;;;;;5050475;28;20091;-77
2021/07/19 12:37:10;;;;;;;5.43;2.60;;;25.80;99.90;;;;;;5050029;28;20033;-76
2021/07/19 12:39:39;;;;;;;2.88;2.38;;;25.90;99.90;;;;;;5051089;28;20419;-79
2021/07/19 12:42:08;;;;;;;3.55;2.50;;;25.90;99.90;;;;;;5051338;28;20021;-77
2021/07/19 12:44:34;;;;;;;2.20;2.00;;;25.90;99.90;;;;;;5050238;28;20493;-77
2021/07/19 12:47:00;;;;;;;2.80;2.60;;;25.90;99.90;;;;;;5050040;28;20021;-76
2021/07/19 12:49:39;;;;;;;2.95;2.40;;;25.90;99.90;;;;;;5051149;28;20120;-75
2021/07/19 12:52:06;;;;;;;3.60;2.17;;;26.00;99.90;;;;;;5033304;28;20031;-77